sensor_id;sensor_type;location;lat;lon;timestamp;pressure;altitude;pressure_sealevel;temperature;humidity
5126;BME280;63008;53.112;8.896;2022-10-16T00:01:44;100930.22;;;13.52;80.75
5126;BME280;63008;53.112;8.896;2022-10-16T00:03:47;100930.44;;;13.47;80.86
5126;BME280;63008;53.112;8.896;2022-10-16T00:05:48;100924.91;;;13.47;80.98
5126;BME280;63008;53.112;8.896;2022-10-16T00:07:49;100928.03;;;13.45;80.60
5126;BME280;63008;53.112;8.896;2022-10-16T00:09:50;100937.81;;;13.43;80.97
5126;BME280;63008;53.112;8.896;2022-10-16T00:11:51;100929.91;;;13.41;80.75
5126;BME280;63008;53.112;8.896;2022-10-16T00:13:56;100931.72;;;13.37;81.14
5126;BME280;63008;53.112;8.896;2022-10-16T00:15:58;100942.41;;;13.39;80.90
5126;BME280;63008;53.112;8.896;2022-10-16T00:18:00;100941.97;;;13.37;80.94
5126;BME280;63008;53.112;8.896;2022-10-16T00:20:01;100940.69;;;13.34;80.98
5126;BME280;63008;53.112;8.896;2022-10-16T00:22:02;100946.91;;;13.31;80.89
5126;BME280;63008;53.112;8.896;2022-10-16T00:24:06;100947.03;;;13.35;80.79
5126;BME280;63008;53.112;8.896;2022-10-16T00:26:12;100955.16;;;13.31;80.78
5126;BME280;63008;53.112;8.896;2022-10-16T00:28:13;100945.31;;;13.30;80.76
5126;BME280;63008;53.112;8.896;2022-10-16T00:30:14;100946.13;;;13.31;80.70
5126;BME280;63008;53.112;8.896;2022-10-16T00:32:15;100950.81;;;13.30;80.73
5126;BME280;63008;53.112;8.896;2022-10-16T00:34:16;100954.28;;;13.27;80.80
5126;BME280;63008;53.112;8.896;2022-10-16T00:36:20;100961.25;;;13.25;80.89
5126;BME280;63008;53.112;8.896;2022-10-16T00:38:21;100953.38;;;13.23;80.90
5126;BME280;63008;53.112;8.896;2022-10-16T00:40:22;100953.69;;;13.22;80.93
5126;BME280;63008;53.112;8.896;2022-10-16T00:42:23;100955.31;;;13.23;80.65
5126;BME280;63008;53.112;8.896;2022-10-16T00:44:52;100958.31;;;13.18;80.72
5126;BME280;63008;53.112;8.896;2022-10-16T00:46:54;100958.63;;;13.16;80.78
5126;BME280;63008;53.112;8.896;2022-10-16T00:49:15;100969.66;;;13.16;80.33
5126;BME280;63008;53.112;8.896;2022-10-16T00:51:19;100965.66;;;13.14;80.69
5126;BME280;63008;53.112;8.896;2022-10-16T00:53:22;100970.22;;;13.10;80.58
5126;BME280;63008;53.112;8.896;2022-10-16T00:55:25;100960.47;;;13.12;80.60
5126;BME280;63008;53.112;8.896;2022-10-16T00:57:26;100965.28;;;13.15;80.43
5126;BME280;63008;53.112;8.896;2022-10-16T00:59:34;100968.75;;;13.12;80.40
5126;BME280;63008;53.112;8.896;2022-10-16T01:01:35;100971.38;;;13.09;80.50
5126;BME280;63008;53.112;8.896;2022-10-16T01:03:37;100974.03;;;13.05;80.86
5126;BME280;63008;53.112;8.896;2022-10-16T01:05:54;100973.91;;;13.02;80.88
5126;BME280;63008;53.112;8.896;2022-10-16T01:08:13;100970.34;;;13.01;80.72
5126;BME280;63008;53.112;8.896;2022-10-16T01:10:29;100961.63;;;12.99;80.66
5126;BME280;63008;53.112;8.896;2022-10-16T01:12:40;100965.06;;;12.96;80.64
5126;BME280;63008;53.112;8.896;2022-10-16T01:15:03;100971.28;;;12.93;81.01
5126;BME280;63008;53.112;8.896;2022-10-16T01:17:13;100966.91;;;12.92;81.02
5126;BME280;63008;53.112;8.896;2022-10-16T01:21:28;100952.66;;;12.90;80.81
5126;BME280;63008;53.112;8.896;2022-10-16T01:23:46;100962.84;;;12.90;81.14
5126;BME280;63008;53.112;8.896;2022-10-16T01:26:15;100950.69;;;12.91;80.77
5126;BME280;63008;53.112;8.896;2022-10-16T01:28:22;100962.28;;;12.84;81.06
5126;BME280;63008;53.112;8.896;2022-10-16T01:30:27;100960.00;;;12.86;80.90
5126;BME280;63008;53.112;8.896;2022-10-16T01:32:37;100963.22;;;12.88;80.82
5126;BME280;63008;53.112;8.896;2022-10-16T01:34:49;100968.00;;;12.79;81.26
5126;BME280;63008;53.112;8.896;2022-10-16T01:36:54;100964.00;;;12.77;81.30
5126;BME280;63008;53.112;8.896;2022-10-16T01:39:00;100960.78;;;12.75;81.46
5126;BME280;63008;53.112;8.896;2022-10-16T01:41:09;100964.69;;;12.74;81.52
5126;BME280;63008;53.112;8.896;2022-10-16T01:43:16;100969.72;;;12.72;81.78
5126;BME280;63008;53.112;8.896;2022-10-16T01:45:19;100969.72;;;12.72;81.70
5126;BME280;63008;53.112;8.896;2022-10-16T01:47:24;100961.47;;;12.72;81.68
5126;BME280;63008;53.112;8.896;2022-10-16T01:49:30;100980.28;;;12.70;81.71
5126;BME280;63008;53.112;8.896;2022-10-16T01:51:32;100970.09;;;12.71;81.83
5126;BME280;63008;53.112;8.896;2022-10-16T01:53:33;100965.22;;;12.68;82.02
5126;BME280;63008;53.112;8.896;2022-10-16T01:55:38;100973.16;;;12.69;81.86
5126;BME280;63008;53.112;8.896;2022-10-16T01:57:46;100959.84;;;12.71;81.72
5126;BME280;63008;53.112;8.896;2022-10-16T01:59:51;100971.00;;;12.74;81.62
5126;BME280;63008;53.112;8.896;2022-10-16T02:01:59;100972.59;;;12.75;81.93
5126;BME280;63008;53.112;8.896;2022-10-16T02:04:11;100970.19;;;12.74;81.47
5126;BME280;63008;53.112;8.896;2022-10-16T02:06:14;100965.81;;;12.73;81.66
5126;BME280;63008;53.112;8.896;2022-10-16T02:08:15;100963.44;;;12.72;81.66
5126;BME280;63008;53.112;8.896;2022-10-16T02:10:16;100963.31;;;12.68;82.04
5126;BME280;63008;53.112;8.896;2022-10-16T02:12:28;100955.72;;;12.65;82.02
5126;BME280;63008;53.112;8.896;2022-10-16T02:14:31;100967.44;;;12.62;82.33
5126;BME280;63008;53.112;8.896;2022-10-16T02:16:44;100969.25;;;12.58;82.45
5126;BME280;63008;53.112;8.896;2022-10-16T02:18:45;100969.59;;;12.57;82.60
5126;BME280;63008;53.112;8.896;2022-10-16T02:20:54;100972.13;;;12.62;82.41
5126;BME280;63008;53.112;8.896;2022-10-16T02:22:58;100975.34;;;12.64;82.35
5126;BME280;63008;53.112;8.896;2022-10-16T02:25:06;100983.28;;;12.65;82.18
5126;BME280;63008;53.112;8.896;2022-10-16T02:27:12;100989.91;;;12.64;82.11
5126;BME280;63008;53.112;8.896;2022-10-16T02:29:17;100988.50;;;12.58;82.48
5126;BME280;63008;53.112;8.896;2022-10-16T02:31:26;100989.19;;;12.55;82.62
5126;BME280;63008;53.112;8.896;2022-10-16T02:33:30;100981.66;;;12.64;82.04
5126;BME280;63008;53.112;8.896;2022-10-16T02:35:32;100975.69;;;12.62;82.24
5126;BME280;63008;53.112;8.896;2022-10-16T02:37:34;100973.28;;;12.61;82.33
5126;BME280;63008;53.112;8.896;2022-10-16T02:39:36;100967.44;;;12.62;82.45
5126;BME280;63008;53.112;8.896;2022-10-16T02:41:38;100962.25;;;12.61;82.25
5126;BME280;63008;53.112;8.896;2022-10-16T02:43:39;100956.63;;;12.57;82.36
5126;BME280;63008;53.112;8.896;2022-10-16T02:45:40;100956.97;;;12.56;82.65
5126;BME280;63008;53.112;8.896;2022-10-16T02:47:41;100961.34;;;12.57;82.45
5126;BME280;63008;53.112;8.896;2022-10-16T02:49:42;100959.38;;;12.57;82.56
5126;BME280;63008;53.112;8.896;2022-10-16T02:51:43;100960.06;;;12.54;82.78
5126;BME280;63008;53.112;8.896;2022-10-16T02:53:44;100958.00;;;12.51;82.71
5126;BME280;63008;53.112;8.896;2022-10-16T02:55:45;100956.97;;;12.56;82.70
5126;BME280;63008;53.112;8.896;2022-10-16T02:57:46;100964.31;;;12.52;82.79
5126;BME280;63008;53.112;8.896;2022-10-16T02:59:47;100960.75;;;12.51;83.01
5126;BME280;63008;53.112;8.896;2022-10-16T03:01:48;100963.50;;;12.51;82.75
5126;BME280;63008;53.112;8.896;2022-10-16T03:03:50;100969.00;;;12.51;82.87
5126;BME280;63008;53.112;8.896;2022-10-16T03:05:51;100970.97;;;12.51;82.94
5126;BME280;63008;53.112;8.896;2022-10-16T03:07:52;100968.00;;;12.56;82.75
5126;BME280;63008;53.112;8.896;2022-10-16T03:09:53;100970.28;;;12.54;82.81
5126;BME280;63008;53.112;8.896;2022-10-16T03:11:55;100971.44;;;12.53;83.03
5126;BME280;63008;53.112;8.896;2022-10-16T03:13:56;100980.03;;;12.51;83.03
5126;BME280;63008;53.112;8.896;2022-10-16T03:15:57;100970.16;;;12.50;83.16
5126;BME280;63008;53.112;8.896;2022-10-16T03:17:58;100969.59;;;12.57;82.98
5126;BME280;63008;53.112;8.896;2022-10-16T03:19:59;100973.28;;;12.61;82.70
5126;BME280;63008;53.112;8.896;2022-10-16T03:22:00;100972.94;;;12.62;82.92
5126;BME280;63008;53.112;8.896;2022-10-16T03:24:01;100978.09;;;12.64;82.89
5126;BME280;63008;53.112;8.896;2022-10-16T03:26:02;100967.31;;;12.59;83.18
5126;BME280;63008;53.112;8.896;2022-10-16T03:28:03;100971.75;;;12.51;83.33
5126;BME280;63008;53.112;8.896;2022-10-16T03:30:04;100984.06;;;12.54;83.12
5126;BME280;63008;53.112;8.896;2022-10-16T03:32:06;100984.75;;;12.51;83.54
5126;BME280;63008;53.112;8.896;2022-10-16T03:34:07;100980.25;;;12.46;83.68
5126;BME280;63008;53.112;8.896;2022-10-16T03:36:08;100981.50;;;12.49;83.63
5126;BME280;63008;53.112;8.896;2022-10-16T03:38:09;100988.75;;;12.53;83.25
5126;BME280;63008;53.112;8.896;2022-10-16T03:40:10;100991.50;;;12.53;83.47
5126;BME280;63008;53.112;8.896;2022-10-16T03:42:11;100990.00;;;12.56;83.78
5126;BME280;63008;53.112;8.896;2022-10-16T03:44:13;100991.63;;;12.57;83.55
5126;BME280;63008;53.112;8.896;2022-10-16T03:46:15;100984.06;;;12.54;83.85
5126;BME280;63008;53.112;8.896;2022-10-16T03:48:16;100990.16;;;12.59;83.61
5126;BME280;63008;53.112;8.896;2022-10-16T03:50:17;100982.78;;;12.51;83.98
5126;BME280;63008;53.112;8.896;2022-10-16T03:52:18;100983.22;;;12.53;84.17
5126;BME280;63008;53.112;8.896;2022-10-16T03:54:19;100988.31;;;12.63;83.86
5126;BME280;63008;53.112;8.896;2022-10-16T03:56:20;100989.66;;;12.57;84.27
5126;BME280;63008;53.112;8.896;2022-10-16T03:58:21;100993.22;;;12.58;84.24
5126;BME280;63008;53.112;8.896;2022-10-16T04:00:22;100988.50;;;12.58;84.38
5126;BME280;63008;53.112;8.896;2022-10-16T04:02:24;100995.66;;;12.59;84.26
5126;BME280;63008;53.112;8.896;2022-10-16T04:04:25;100991.63;;;12.57;84.44
5126;BME280;63008;53.112;8.896;2022-10-16T04:06:26;100994.16;;;12.62;84.47
5126;BME280;63008;53.112;8.896;2022-10-16T04:08:27;101004.03;;;12.63;84.56
5126;BME280;63008;53.112;8.896;2022-10-16T04:10:28;101001.63;;;12.61;84.70
5126;BME280;63008;53.112;8.896;2022-10-16T04:12:29;101013.41;;;12.62;84.57
5126;BME280;63008;53.112;8.896;2022-10-16T04:14:30;101012.63;;;12.61;84.86
5126;BME280;63008;53.112;8.896;2022-10-16T04:16:32;101015.25;;;12.58;85.08
5126;BME280;63008;53.112;8.896;2022-10-16T04:18:33;101025.44;;;12.57;85.30
5126;BME280;63008;53.112;8.896;2022-10-16T04:20:34;101021.91;;;12.57;85.29
5126;BME280;63008;53.112;8.896;2022-10-16T04:22:35;101026.63;;;12.68;85.04
5126;BME280;63008;53.112;8.896;2022-10-16T04:24:36;101025.34;;;12.66;85.12
5126;BME280;63008;53.112;8.896;2022-10-16T04:26:37;101026.50;;;12.65;85.11
5126;BME280;63008;53.112;8.896;2022-10-16T04:28:38;101017.91;;;12.66;85.29
5126;BME280;63008;53.112;8.896;2022-10-16T04:30:39;101016.91;;;12.71;85.01
5126;BME280;63008;53.112;8.896;2022-10-16T04:32:40;101019.53;;;12.67;85.12
5126;BME280;63008;53.112;8.896;2022-10-16T04:34:41;101008.84;;;12.66;85.27
5126;BME280;63008;53.112;8.896;2022-10-16T04:36:42;101006.91;;;12.66;85.51
5126;BME280;63008;53.112;8.896;2022-10-16T04:38:43;101000.56;;;12.66;85.65
5126;BME280;63008;53.112;8.896;2022-10-16T04:40:44;101015.28;;;12.70;85.61
5126;BME280;63008;53.112;8.896;2022-10-16T04:42:45;101008.63;;;12.71;85.61
5126;BME280;63008;53.112;8.896;2022-10-16T04:44:46;101015.97;;;12.78;85.32
5126;BME280;63008;53.112;8.896;2022-10-16T04:46:49;101009.69;;;12.78;85.53
5126;BME280;63008;53.112;8.896;2022-10-16T04:48:50;101017.25;;;12.81;85.08
5126;BME280;63008;53.112;8.896;2022-10-16T04:50:51;101012.09;;;12.79;85.46
5126;BME280;63008;53.112;8.896;2022-10-16T04:52:52;101021.16;;;12.80;85.67
5126;BME280;63008;53.112;8.896;2022-10-16T04:54:53;101016.13;;;12.82;85.37
5126;BME280;63008;53.112;8.896;2022-10-16T04:56:56;101018.28;;;12.76;85.56
5126;BME280;63008;53.112;8.896;2022-10-16T04:58:57;101025.41;;;12.77;85.85
5126;BME280;63008;53.112;8.896;2022-10-16T05:00:58;101020.00;;;12.81;85.86
5126;BME280;63008;53.112;8.896;2022-10-16T05:02:59;101021.63;;;12.82;85.97
5126;BME280;63008;53.112;8.896;2022-10-16T05:05:01;101024.38;;;12.82;86.03
5126;BME280;63008;53.112;8.896;2022-10-16T05:07:02;101025.84;;;12.79;86.18
5126;BME280;63008;53.112;8.896;2022-10-16T05:09:04;101022.31;;;12.79;86.11
5126;BME280;63008;53.112;8.896;2022-10-16T05:11:05;101026.69;;;12.80;86.41
5126;BME280;63008;53.112;8.896;2022-10-16T05:13:06;101023.47;;;12.78;86.33
5126;BME280;63008;53.112;8.896;2022-10-16T05:15:07;101031.72;;;12.78;86.65
5126;BME280;63008;53.112;8.896;2022-10-16T05:17:08;101038.94;;;12.82;86.38
5126;BME280;63008;53.112;8.896;2022-10-16T05:19:09;101046.19;;;12.87;86.43
5126;BME280;63008;53.112;8.896;2022-10-16T05:21:10;101042.56;;;12.95;86.38
5126;BME280;63008;53.112;8.896;2022-10-16T05:23:11;101050.84;;;12.95;86.35
5126;BME280;63008;53.112;8.896;2022-10-16T05:25:12;101042.66;;;12.98;86.08
5126;BME280;63008;53.112;8.896;2022-10-16T05:27:14;101047.50;;;13.01;86.14
5126;BME280;63008;53.112;8.896;2022-10-16T05:29:20;101045.91;;;13.12;85.95
5126;BME280;63008;53.112;8.896;2022-10-16T05:31:21;101047.06;;;13.11;85.69
5126;BME280;63008;53.112;8.896;2022-10-16T05:33:23;101041.31;;;13.16;85.85
5126;BME280;63008;53.112;8.896;2022-10-16T05:35:24;101040.53;;;13.16;85.93
5126;BME280;63008;53.112;8.896;2022-10-16T05:37:27;101049.94;;;13.15;85.84
5126;BME280;63008;53.112;8.896;2022-10-16T05:39:28;101050.50;;;13.20;85.76
5126;BME280;63008;53.112;8.896;2022-10-16T05:41:29;101048.22;;;13.22;85.67
5126;BME280;63008;53.112;8.896;2022-10-16T05:43:31;101056.25;;;13.27;85.62
5126;BME280;63008;53.112;8.896;2022-10-16T05:45:32;101044.78;;;13.25;85.67
5126;BME280;63008;53.112;8.896;2022-10-16T05:47:33;101056.94;;;13.24;85.53
5126;BME280;63008;53.112;8.896;2022-10-16T05:49:34;101055.22;;;13.20;85.96
5126;BME280;63008;53.112;8.896;2022-10-16T05:51:35;101069.78;;;13.20;86.06
5126;BME280;63008;53.112;8.896;2022-10-16T05:53:37;101069.59;;;13.25;86.44
5126;BME280;63008;53.112;8.896;2022-10-16T05:55:38;101066.59;;;13.30;86.45
5126;BME280;63008;53.112;8.896;2022-10-16T05:57:39;101073.00;;;13.34;86.28
5126;BME280;63008;53.112;8.896;2022-10-16T05:59:40;101073.25;;;13.41;85.44
5126;BME280;63008;53.112;8.896;2022-10-16T06:01:41;101072.81;;;13.39;85.80
5126;BME280;63008;53.112;8.896;2022-10-16T06:03:42;101077.16;;;13.40;85.50
5126;BME280;63008;53.112;8.896;2022-10-16T06:05:44;101079.56;;;13.42;85.34
5126;BME280;63008;53.112;8.896;2022-10-16T06:07:44;101088.19;;;13.40;85.28
5126;BME280;63008;53.112;8.896;2022-10-16T06:09:49;101081.53;;;13.41;85.54
5126;BME280;63008;53.112;8.896;2022-10-16T06:11:50;101078.78;;;13.41;85.36
5126;BME280;63008;53.112;8.896;2022-10-16T06:13:52;101087.38;;;13.40;85.42
5126;BME280;63008;53.112;8.896;2022-10-16T06:15:57;101087.25;;;13.36;85.51
5126;BME280;63008;53.112;8.896;2022-10-16T06:17:58;101090.50;;;13.38;85.28
5126;BME280;63008;53.112;8.896;2022-10-16T06:19:59;101091.28;;;13.39;85.41
5126;BME280;63008;53.112;8.896;2022-10-16T06:22:00;101091.75;;;13.41;85.13
5126;BME280;63008;53.112;8.896;2022-10-16T06:24:03;101099.22;;;13.40;85.31
5126;BME280;63008;53.112;8.896;2022-10-16T06:26:10;101097.63;;;13.39;85.22
5126;BME280;63008;53.112;8.896;2022-10-16T06:28:13;101104.75;;;13.40;85.19
5126;BME280;63008;53.112;8.896;2022-10-16T06:30:14;101108.41;;;13.44;85.21
5126;BME280;63008;53.112;8.896;2022-10-16T06:32:15;101104.28;;;13.50;84.68
5126;BME280;63008;53.112;8.896;2022-10-16T06:34:16;101103.47;;;13.50;84.97
5126;BME280;63008;53.112;8.896;2022-10-16T06:36:17;101103.34;;;13.46;85.01
5126;BME280;63008;53.112;8.896;2022-10-16T06:38:18;101109.78;;;13.50;84.70
5126;BME280;63008;53.112;8.896;2022-10-16T06:40:19;101115.75;;;13.52;84.94
5126;BME280;63008;53.112;8.896;2022-10-16T06:42:20;101111.06;;;13.53;84.73
5126;BME280;63008;53.112;8.896;2022-10-16T06:44:21;101112.78;;;13.57;84.64
5126;BME280;63008;53.112;8.896;2022-10-16T06:46:23;101118.50;;;13.52;84.57
5126;BME280;63008;53.112;8.896;2022-10-16T06:48:30;101124.84;;;13.53;84.63
5126;BME280;63008;53.112;8.896;2022-10-16T06:50:31;101123.69;;;13.54;84.60
5126;BME280;63008;53.112;8.896;2022-10-16T06:52:33;101125.19;;;13.51;84.79
5126;BME280;63008;53.112;8.896;2022-10-16T06:54:34;101134.59;;;13.50;84.74
5126;BME280;63008;53.112;8.896;2022-10-16T06:56:35;101134.97;;;13.49;84.71
5126;BME280;63008;53.112;8.896;2022-10-16T06:58:36;101146.44;;;13.51;84.93
5126;BME280;63008;53.112;8.896;2022-10-16T07:00:37;101146.09;;;13.52;84.56
5126;BME280;63008;53.112;8.896;2022-10-16T07:02:38;101149.31;;;13.54;84.67
5126;BME280;63008;53.112;8.896;2022-10-16T07:04:39;101157.94;;;13.53;84.68
5126;BME280;63008;53.112;8.896;2022-10-16T07:06:40;101159.09;;;13.52;84.67
5126;BME280;63008;53.112;8.896;2022-10-16T07:08:43;101167.25;;;13.60;84.29
5126;BME280;63008;53.112;8.896;2022-10-16T07:10:44;101163.47;;;13.65;84.18
5126;BME280;63008;53.112;8.896;2022-10-16T07:12:45;101161.75;;;13.60;84.27
5126;BME280;63008;53.112;8.896;2022-10-16T07:14:46;101170.81;;;13.61;84.25
5126;BME280;63008;53.112;8.896;2022-10-16T07:16:48;101176.31;;;13.61;84.32
5126;BME280;63008;53.112;8.896;2022-10-16T07:18:48;101176.44;;;13.64;84.30
5126;BME280;63008;53.112;8.896;2022-10-16T07:20:50;101182.09;;;13.68;84.36
5126;BME280;63008;53.112;8.896;2022-10-16T07:22:51;101188.53;;;13.72;84.23
5126;BME280;63008;53.112;8.896;2022-10-16T07:24:52;101189.56;;;13.79;83.41
5126;BME280;63008;53.112;8.896;2022-10-16T07:26:53;101188.75;;;13.91;83.11
5126;BME280;63008;53.112;8.896;2022-10-16T07:28:54;101197.25;;;13.98;83.23
5126;BME280;63008;53.112;8.896;2022-10-16T07:30:55;101197.03;;;14.03;83.10
5126;BME280;63008;53.112;8.896;2022-10-16T07:33:00;101196.72;;;14.16;82.67
5126;BME280;63008;53.112;8.896;2022-10-16T07:35:01;101205.22;;;14.23;82.20
5126;BME280;63008;53.112;8.896;2022-10-16T07:37:02;101207.75;;;14.28;82.28
5126;BME280;63008;53.112;8.896;2022-10-16T07:39:04;101210.59;;;14.32;82.03
5126;BME280;63008;53.112;8.896;2022-10-16T07:41:06;101205.78;;;14.41;81.45
5126;BME280;63008;53.112;8.896;2022-10-16T07:43:07;101210.47;;;14.40;81.47
5126;BME280;63008;53.112;8.896;2022-10-16T07:45:08;101213.59;;;14.39;81.73
5126;BME280;63008;53.112;8.896;2022-10-16T07:47:10;101219.47;;;14.37;81.82
5126;BME280;63008;53.112;8.896;2022-10-16T07:49:11;101215.91;;;14.37;81.74
5126;BME280;63008;53.112;8.896;2022-10-16T07:51:13;101219.13;;;14.39;81.29
5126;BME280;63008;53.112;8.896;2022-10-16T07:53:14;101218.75;;;14.40;81.29
5126;BME280;63008;53.112;8.896;2022-10-16T07:55:15;101227.88;;;14.41;81.24
5126;BME280;63008;53.112;8.896;2022-10-16T07:57:16;101227.50;;;14.42;81.50
5126;BME280;63008;53.112;8.896;2022-10-16T07:59:20;101232.22;;;14.42;81.43
5126;BME280;63008;53.112;8.896;2022-10-16T08:01:21;101235.44;;;14.44;81.27
5126;BME280;63008;53.112;8.896;2022-10-16T08:03:22;101240.63;;;14.45;80.92
5126;BME280;63008;53.112;8.896;2022-10-16T08:05:23;101233.34;;;14.53;81.13
5126;BME280;63008;53.112;8.896;2022-10-16T08:07:24;101239.56;;;14.62;80.77
5126;BME280;63008;53.112;8.896;2022-10-16T08:09:25;101241.94;;;14.75;80.39
5126;BME280;63008;53.112;8.896;2022-10-16T08:11:26;101240.31;;;14.86;80.07
5126;BME280;63008;53.112;8.896;2022-10-16T08:13:27;101240.88;;;14.91;79.94
5126;BME280;63008;53.112;8.896;2022-10-16T08:15:28;101250.63;;;15.01;78.96
5126;BME280;63008;53.112;8.896;2022-10-16T08:17:29;101248.06;;;15.08;79.18
5126;BME280;63008;53.112;8.896;2022-10-16T08:19:30;101255.41;;;15.16;79.02
5126;BME280;63008;53.112;8.896;2022-10-16T08:21:32;101253.44;;;15.16;78.57
5126;BME280;63008;53.112;8.896;2022-10-16T08:23:33;101246.84;;;15.21;78.13
5126;BME280;63008;53.112;8.896;2022-10-16T08:25:35;101267.38;;;15.20;77.78
5126;BME280;63008;53.112;8.896;2022-10-16T08:27:39;101265.41;;;15.20;77.58
5126;BME280;63008;53.112;8.896;2022-10-16T08:29:40;101271.38;;;15.22;78.13
5126;BME280;63008;53.112;8.896;2022-10-16T08:31:41;101274.13;;;15.34;77.48
5126;BME280;63008;53.112;8.896;2022-10-16T08:33:44;101272.25;;;15.38;77.46
5126;BME280;63008;53.112;8.896;2022-10-16T08:35:53;101276.41;;;15.44;76.96
5126;BME280;63008;53.112;8.896;2022-10-16T08:37:54;101270.81;;;15.72;76.62
5126;BME280;63008;53.112;8.896;2022-10-16T08:39:55;101274.47;;;15.91;75.64
5126;BME280;63008;53.112;8.896;2022-10-16T08:44:31;101284.78;;;16.06;74.00
5126;BME280;63008;53.112;8.896;2022-10-16T08:46:52;101294.78;;;16.11;74.23
5126;BME280;63008;53.112;8.896;2022-10-16T08:49:02;101301.22;;;16.30;72.51
5126;BME280;63008;53.112;8.896;2022-10-16T08:51:04;101299.53;;;16.41;72.80
5126;BME280;63008;53.112;8.896;2022-10-16T08:53:09;101301.31;;;16.49;72.44
5126;BME280;63008;53.112;8.896;2022-10-16T08:55:29;101294.88;;;16.30;72.52
5126;BME280;63008;53.112;8.896;2022-10-16T08:57:31;101298.00;;;16.13;73.25
5126;BME280;63008;53.112;8.896;2022-10-16T08:59:34;101301.03;;;16.08;72.48
5126;BME280;63008;53.112;8.896;2022-10-16T09:01:41;101309.34;;;16.08;73.60
5126;BME280;63008;53.112;8.896;2022-10-16T09:04:16;101314.50;;;16.09;73.14
5126;BME280;63008;53.112;8.896;2022-10-16T09:06:47;101323.53;;;16.06;73.36
5126;BME280;63008;53.112;8.896;2022-10-16T09:11:46;101332.28;;;16.08;73.41
5126;BME280;63008;53.112;8.896;2022-10-16T09:13:58;101328.19;;;16.18;73.42
5126;BME280;63008;53.112;8.896;2022-10-16T09:16:25;101333.94;;;16.25;73.02
5126;BME280;63008;53.112;8.896;2022-10-16T09:20:55;101327.84;;;16.35;72.15
5126;BME280;63008;53.112;8.896;2022-10-16T09:23:18;101336.28;;;16.38;71.70
5126;BME280;63008;53.112;8.896;2022-10-16T09:25:21;101340.03;;;16.46;71.69
5126;BME280;63008;53.112;8.896;2022-10-16T09:27:22;101347.34;;;16.53;71.22
5126;BME280;63008;53.112;8.896;2022-10-16T09:29:23;101336.16;;;16.65;70.84
5126;BME280;63008;53.112;8.896;2022-10-16T09:31:25;101341.31;;;16.82;70.23
5126;BME280;63008;53.112;8.896;2022-10-16T09:33:36;101327.91;;;17.03;70.08
5126;BME280;63008;53.112;8.896;2022-10-16T09:35:48;101335.50;;;17.06;69.32
5126;BME280;63008;53.112;8.896;2022-10-16T09:37:51;101335.31;;;17.15;68.80
5126;BME280;63008;53.112;8.896;2022-10-16T09:39:54;101338.47;;;17.13;68.57
5126;BME280;63008;53.112;8.896;2022-10-16T09:41:56;101348.69;;;17.09;68.72
5126;BME280;63008;53.112;8.896;2022-10-16T09:43:59;101335.69;;;17.13;69.29
5126;BME280;63008;53.112;8.896;2022-10-16T09:46:09;101343.72;;;17.18;69.23
5126;BME280;63008;53.112;8.896;2022-10-16T09:48:22;101336.69;;;17.24;67.94
5126;BME280;63008;53.112;8.896;2022-10-16T09:50:26;101344.72;;;17.45;67.54
5126;BME280;63008;53.112;8.896;2022-10-16T09:52:28;101351.50;;;17.47;66.90
5126;BME280;63008;53.112;8.896;2022-10-16T09:54:30;101340.16;;;17.75;66.32
5126;BME280;63008;53.112;8.896;2022-10-16T09:56:33;101352.66;;;17.84;65.80
5126;BME280;63008;53.112;8.896;2022-10-16T09:58:36;101336.50;;;17.90;65.02
5126;BME280;63008;53.112;8.896;2022-10-16T10:00:41;101344.28;;;18.03;64.72
5126;BME280;63008;53.112;8.896;2022-10-16T10:02:42;101346.16;;;18.18;64.78
5126;BME280;63008;53.112;8.896;2022-10-16T10:04:49;101351.03;;;18.25;63.36
5126;BME280;63008;53.112;8.896;2022-10-16T10:06:52;101351.69;;;18.63;62.68
5126;BME280;63008;53.112;8.896;2022-10-16T10:11:06;101369.00;;;19.01;61.24
5126;BME280;63008;53.112;8.896;2022-10-16T10:13:19;101364.81;;;18.88;61.08
5126;BME280;63008;53.112;8.896;2022-10-16T10:15:21;101372.91;;;18.97;61.19
5126;BME280;63008;53.112;8.896;2022-10-16T10:17:26;101372.47;;;18.69;61.47
5126;BME280;63008;53.112;8.896;2022-10-16T10:19:28;101365.22;;;18.87;61.56
5126;BME280;63008;53.112;8.896;2022-10-16T10:21:32;101364.88;;;18.92;60.55
5126;BME280;63008;53.112;8.896;2022-10-16T10:23:34;101371.25;;;19.18;61.17
5126;BME280;63008;53.112;8.896;2022-10-16T10:25:44;101373.94;;;19.11;60.13
5126;BME280;63008;53.112;8.896;2022-10-16T10:27:59;101379.97;;;19.17;60.06
5126;BME280;63008;53.112;8.896;2022-10-16T10:30:14;101377.81;;;19.33;60.23
5126;BME280;63008;53.112;8.896;2022-10-16T10:32:31;101378.06;;;19.21;59.82
5126;BME280;63008;53.112;8.896;2022-10-16T10:34:38;101391.78;;;19.10;59.45
5126;BME280;63008;53.112;8.896;2022-10-16T10:36:41;101390.66;;;19.15;59.46
5126;BME280;63008;53.112;8.896;2022-10-16T10:39:00;101401.94;;;19.22;59.00
5126;BME280;63008;53.112;8.896;2022-10-16T10:45:43;101395.47;;;19.44;58.06
5126;BME280;63008;53.112;8.896;2022-10-16T10:48:17;101392.69;;;19.73;57.33
5126;BME280;63008;53.112;8.896;2022-10-16T10:55:37;101408.00;;;19.90;56.91
5126;BME280;63008;53.112;8.896;2022-10-16T10:57:52;101404.38;;;20.19;55.57
5126;BME280;63008;53.112;8.896;2022-10-16T11:00:20;101405.81;;;20.06;56.43
5126;BME280;63008;53.112;8.896;2022-10-16T11:02:39;101404.66;;;20.46;55.05
5126;BME280;63008;53.112;8.896;2022-10-16T11:07:21;101396.38;;;21.00;53.20
5126;BME280;63008;53.112;8.896;2022-10-16T11:09:48;101415.88;;;21.61;52.31
5126;BME280;63008;53.112;8.896;2022-10-16T11:12:06;101414.78;;;21.69;52.31
5126;BME280;63008;53.112;8.896;2022-10-16T11:14:25;101420.34;;;21.66;52.07
5126;BME280;63008;53.112;8.896;2022-10-16T11:16:34;101429.78;;;21.47;52.34
5126;BME280;63008;53.112;8.896;2022-10-16T11:21:16;101422.75;;;21.67;52.71
5126;BME280;63008;53.112;8.896;2022-10-16T11:23:32;101430.78;;;21.76;51.67
5126;BME280;63008;53.112;8.896;2022-10-16T11:25:35;101436.75;;;21.74;51.51